Honesdale, Pennsylvania
Current Conditions -  °F | °C
As of 12:15 PM on Friday 28 Nov 2014 (Local Time) from KMSV Reporting Station
Overcast Overcast  
Wind Chill: 15°   Ceiling: 3400
Heat Index: 25°   Visibility: 10mi
Dew Point: 16°   Wind: 9mph
Humidity: 69%   Direction: 290°WNW
Pressure: 30.11"   Gusts: 18mph
Location:  41.58°N, 75.26°W
Report Text: KMSV 281715Z AUTO 29008G16KT 10SM OVC034 M04/M09 A3011 RMK AO1
Loading
Personal Weather Stations






























Interactive Weather Map New forecast layout! Learn more

10-Day Weather Forecast

Advertisements
Track Severe Weather on mobile